createdAt,value
2022-10-13T00:00:05.758Z,3.58
2022-10-13T00:02:38.680Z,4.22
2022-10-13T00:05:05.549Z,3.15
2022-10-13T00:07:32.060Z,4.30
2022-10-13T00:09:58.554Z,4.50
2022-10-13T00:12:25.039Z,4.05
2022-10-13T00:14:51.616Z,3.05
2022-10-13T00:17:18.171Z,4.68
2022-10-13T00:19:44.687Z,6.93
2022-10-13T00:22:11.222Z,5.63
2022-10-13T00:24:37.675Z,3.17
2022-10-13T00:27:04.155Z,4.10
2022-10-13T00:29:30.641Z,4.82
2022-10-13T00:31:57.098Z,5.55
2022-10-13T00:34:23.615Z,2.92
2022-10-13T00:36:50.090Z,5.93
2022-10-13T00:39:16.562Z,4.18
2022-10-13T00:41:43.126Z,4.28
2022-10-13T00:44:47.150Z,4.45
2022-10-13T00:47:13.686Z,4.32
2022-10-13T00:49:40.169Z,3.10
2022-10-13T00:52:06.643Z,4.20
2022-10-13T00:54:33.732Z,4.03
2022-10-13T00:57:00.250Z,3.85
2022-10-13T00:59:29.159Z,4.70
2022-10-13T01:01:57.982Z,5.38
2022-10-13T01:04:27.429Z,3.47
2022-10-13T01:06:55.203Z,3.20
2022-10-13T01:09:21.666Z,3.83
2022-10-13T01:12:18.875Z,2.60
2022-10-13T01:14:52.840Z,4.97
2022-10-13T01:17:56.835Z,4.25
2022-10-13T01:20:48.177Z,3.90
2022-10-13T01:23:23.594Z,3.22
2022-10-13T01:26:14.733Z,4.93
2022-10-13T01:29:16.074Z,3.88
2022-10-13T01:34:29.667Z,3.65
2022-10-13T01:37:11.650Z,4.63
2022-10-13T01:40:04.171Z,2.67
2022-10-13T01:42:37.874Z,4.68
2022-10-13T01:45:08.090Z,3.20
2022-10-13T01:47:35.329Z,4.50
2022-10-13T01:50:02.960Z,2.55
2022-10-13T01:52:34.638Z,4.10
2022-10-13T01:55:10.996Z,3.13
2022-10-13T01:57:42.791Z,3.92
2022-10-13T02:03:00.652Z,3.05
2022-10-13T02:05:38.868Z,3.38
2022-10-13T02:08:44.433Z,2.67
2022-10-13T02:11:14.791Z,2.53
2022-10-13T02:13:47.970Z,3.65
2022-10-13T02:16:23.539Z,4.15
2022-10-13T02:18:50.718Z,3.15
2022-10-13T02:21:17.540Z,2.95
2022-10-13T02:23:44.962Z,3.33
2022-10-13T02:26:11.503Z,4.93
2022-10-13T02:28:38.190Z,3.03
2022-10-13T02:31:07.016Z,3.42
2022-10-13T02:33:34.046Z,6.13
2022-10-13T02:36:00.533Z,5.53
2022-10-13T02:38:27.166Z,4.72
2022-10-13T02:40:54.808Z,3.67
2022-10-13T02:43:22.193Z,5.60
2022-10-13T02:45:48.670Z,4.22
2022-10-13T02:48:15.183Z,9.57
2022-10-13T02:50:41.777Z,4.15
2022-10-13T02:53:08.328Z,4.15
2022-10-13T02:55:34.762Z,3.67
2022-10-13T02:58:01.269Z,3.92
2022-10-13T03:00:28.085Z,3.92
2022-10-13T03:02:54.670Z,3.13
2022-10-13T03:05:21.330Z,5.15
2022-10-13T03:07:47.897Z,3.85
2022-10-13T03:10:14.391Z,3.47
2022-10-13T03:12:40.903Z,6.05
2022-10-13T03:15:08.101Z,6.13
2022-10-13T03:17:34.641Z,4.38
2022-10-13T03:20:01.125Z,3.90
2022-10-13T03:22:27.599Z,3.17
2022-10-13T03:24:54.113Z,4.90
2022-10-13T03:27:20.881Z,5.95
2022-10-13T03:29:47.410Z,8.45
2022-10-13T03:32:13.853Z,8.30
2022-10-13T03:34:40.345Z,4.22
2022-10-13T03:37:06.877Z,5.00
2022-10-13T03:39:39.909Z,6.63
2022-10-13T03:42:08.712Z,5.50
2022-10-13T03:44:36.004Z,5.93
2022-10-13T03:47:02.548Z,4.10
2022-10-13T03:49:29.021Z,5.38
2022-10-13T03:51:55.511Z,4.05
2022-10-13T03:54:22.028Z,4.00
2022-10-13T03:59:18.707Z,3.15
2022-10-13T04:01:45.455Z,3.80
2022-10-13T04:04:12.782Z,3.90
2022-10-13T04:06:41.481Z,8.60
2022-10-13T04:09:08.615Z,5.75
2022-10-13T04:11:35.166Z,3.03
2022-10-13T04:14:01.735Z,4.65
2022-10-13T04:16:30.099Z,3.20
2022-10-13T04:18:59.428Z,3.70
2022-10-13T04:21:26.570Z,4.85
2022-10-13T04:23:57.962Z,4.28
2022-10-13T04:26:26.913Z,4.30
2022-10-13T04:28:54.087Z,6.80
2022-10-13T04:31:24.050Z,6.15
2022-10-13T04:33:51.040Z,4.70
2022-10-13T04:36:18.000Z,4.68
2022-10-13T04:38:46.093Z,3.25
2022-10-13T04:41:14.141Z,4.63
2022-10-13T04:43:40.971Z,4.05
2022-10-13T04:46:13.692Z,2.85
2022-10-13T04:48:40.298Z,5.32
2022-10-13T04:51:09.388Z,4.75
2022-10-13T04:53:36.100Z,4.22
2022-10-13T04:56:08.496Z,4.97
2022-10-13T04:58:36.348Z,4.47
2022-10-13T05:01:04.953Z,3.70
2022-10-13T05:03:31.691Z,5.18
2022-10-13T05:05:58.411Z,2.40
2022-10-13T05:08:25.250Z,4.32
2022-10-13T05:10:59.767Z,6.28
2022-10-13T05:13:27.437Z,3.88
2022-10-13T05:15:57.456Z,5.05
2022-10-13T05:18:24.499Z,8.30
2022-10-13T05:20:50.967Z,4.13
2022-10-13T05:23:17.877Z,5.55
2022-10-13T05:25:44.671Z,6.15
2022-10-13T05:28:13.408Z,4.70
2022-10-13T05:30:39.954Z,7.97
2022-10-13T05:33:06.408Z,5.00
2022-10-13T05:35:32.938Z,6.82
2022-10-13T05:37:59.387Z,3.85
2022-10-13T05:40:25.939Z,5.63
2022-10-13T05:42:59.642Z,4.90
2022-10-13T05:45:28.293Z,5.75
2022-10-13T05:47:54.810Z,5.50
2022-10-13T05:50:21.355Z,5.75
2022-10-13T05:52:47.965Z,5.22
2022-10-13T05:55:15.928Z,4.30
2022-10-13T05:58:01.629Z,5.03
2022-10-13T06:00:28.820Z,4.15
2022-10-13T06:03:01.832Z,5.30
2022-10-13T06:05:28.639Z,4.75
2022-10-13T06:07:56.018Z,5.57
2022-10-13T06:10:23.333Z,4.68
2022-10-13T06:12:49.896Z,3.63
2022-10-13T06:15:16.652Z,5.78
2022-10-13T06:17:43.149Z,3.78
2022-10-13T06:20:10.586Z,5.43
2022-10-13T06:22:37.868Z,5.22
2022-10-13T06:25:06.348Z,5.47
2022-10-13T06:27:33.285Z,8.88
2022-10-13T06:29:59.748Z,3.55
2022-10-13T06:32:26.238Z,5.57
2022-10-13T06:34:52.725Z,4.65
2022-10-13T06:37:23.353Z,5.57
2022-10-13T06:39:52.756Z,8.05
2022-10-13T06:42:19.494Z,4.70
2022-10-13T06:44:50.745Z,3.85
2022-10-13T06:47:17.253Z,4.47
2022-10-13T06:49:43.708Z,4.88
2022-10-13T06:52:12.511Z,5.30
2022-10-13T06:54:39.028Z,5.30
2022-10-13T06:57:06.700Z,6.63
2022-10-13T06:59:35.753Z,4.60
2022-10-13T07:02:02.249Z,5.70
2022-10-13T07:04:28.851Z,7.15
2022-10-13T07:06:57.647Z,5.53
2022-10-13T07:09:24.253Z,12.10
2022-10-13T07:11:50.718Z,6.30
2022-10-13T07:14:17.175Z,5.50
2022-10-13T07:16:43.662Z,5.20
2022-10-13T07:19:10.205Z,6.22
2022-10-13T07:21:38.648Z,5.07
2022-10-13T07:24:05.532Z,5.45
2022-10-13T07:26:33.848Z,5.95
2022-10-13T07:29:00.838Z,4.25
2022-10-13T07:31:27.737Z,5.68
2022-10-13T07:33:54.261Z,5.35
2022-10-13T07:36:27.416Z,6.45
2022-10-13T07:38:58.400Z,10.55
2022-10-13T07:41:24.950Z,5.75
2022-10-13T07:43:56.113Z,8.10
2022-10-13T07:46:22.813Z,5.00
2022-10-13T07:48:49.561Z,5.50
2022-10-13T07:51:16.016Z,8.13
2022-10-13T07:53:42.932Z,6.78
2022-10-13T07:56:11.855Z,5.85
2022-10-13T07:58:39.983Z,5.13
2022-10-13T08:01:07.473Z,7.70
2022-10-13T08:03:38.129Z,6.97
2022-10-13T08:06:05.648Z,7.22
2022-10-13T08:08:32.584Z,5.97
2022-10-13T08:11:04.083Z,6.50
2022-10-13T08:13:31.624Z,6.53
2022-10-13T08:16:04.534Z,5.85
2022-10-13T08:18:31.389Z,7.88
2022-10-13T08:21:23.887Z,7.15
2022-10-13T08:23:48.589Z,7.22
2022-10-13T08:26:21.400Z,9.07
2022-10-13T08:29:02.877Z,8.18
2022-10-13T08:31:36.161Z,5.80
2022-10-13T08:34:02.801Z,7.72
2022-10-13T08:36:29.256Z,6.15
2022-10-13T08:38:55.767Z,5.35
2022-10-13T08:41:31.868Z,9.32
2022-10-13T08:47:38.221Z,9.00
2022-10-13T08:50:12.604Z,5.00
2022-10-13T08:52:48.531Z,7.38
2022-10-13T08:55:42.302Z,6.40
2022-10-13T08:58:24.013Z,5.78
2022-10-13T09:01:02.307Z,7.57
2022-10-13T09:03:29.941Z,5.60
2022-10-13T09:06:15.733Z,9.80
2022-10-13T09:08:53.006Z,6.32
2022-10-13T09:11:20.429Z,7.07
2022-10-13T09:13:46.989Z,6.20
2022-10-13T09:16:13.807Z,5.28
2022-10-13T09:18:40.528Z,5.60
2022-10-13T09:21:24.855Z,5.38
2022-10-13T09:23:53.975Z,9.00
2022-10-13T09:26:23.292Z,5.40
2022-10-13T09:28:51.042Z,6.22
2022-10-13T09:31:28.395Z,6.75
2022-10-13T09:34:00.500Z,6.57
2022-10-13T09:36:27.371Z,7.03
2022-10-13T09:39:13.877Z,6.30
2022-10-13T09:41:42.095Z,7.18
2022-10-13T09:44:18.056Z,5.50
2022-10-13T09:46:56.496Z,6.68
2022-10-13T09:49:38.893Z,7.13
2022-10-13T09:52:25.622Z,5.95
2022-10-13T09:54:54.123Z,5.75
2022-10-13T09:57:35.181Z,6.55
2022-10-13T10:00:17.356Z,9.48
2022-10-13T10:05:19.065Z,6.57
2022-10-13T10:07:45.518Z,7.88
2022-10-13T10:10:33.382Z,5.65
2022-10-13T10:13:03.478Z,5.65
2022-10-13T10:15:53.879Z,7.88
2022-10-13T10:18:45.295Z,6.30
2022-10-13T10:21:38.415Z,6.70
2022-10-13T10:24:19.410Z,5.78
2022-10-13T10:26:55.862Z,8.43
2022-10-13T10:29:43.822Z,6.80
2022-10-13T10:32:30.441Z,5.53
2022-10-13T10:35:04.447Z,4.72
2022-10-13T10:37:41.312Z,5.55
2022-10-13T10:40:11.787Z,7.35
2022-10-13T10:42:52.443Z,7.75
2022-10-13T10:45:26.357Z,8.10
2022-10-13T10:47:56.796Z,10.00
2022-10-13T10:50:26.740Z,8.75
2022-10-13T10:53:03.054Z,6.20
2022-10-13T10:55:38.489Z,8.07
2022-10-13T10:58:26.897Z,3.00
2022-10-13T11:01:02.421Z,7.00
2022-10-13T11:03:43.771Z,7.75
2022-10-13T11:06:16.481Z,4.93
2022-10-13T11:08:46.691Z,7.65
2022-10-13T11:11:24.886Z,8.98
2022-10-13T11:14:27.015Z,5.45
2022-10-13T11:17:05.759Z,6.55
2022-10-13T11:19:35.455Z,9.88
2022-10-13T11:22:01.894Z,5.50
2022-10-13T11:24:39.380Z,7.25
2022-10-13T11:27:09.127Z,4.82
2022-10-13T11:29:45.678Z,7.10
2022-10-13T11:32:36.402Z,12.45
2022-10-13T11:35:19.929Z,10.68
2022-10-13T11:38:08.295Z,9.18
2022-10-13T11:40:58.145Z,6.65
2022-10-13T11:43:46.505Z,7.78
2022-10-13T11:46:19.136Z,6.32
2022-10-13T11:49:10.489Z,7.90
2022-10-13T11:52:00.656Z,8.27
2022-10-13T11:54:35.483Z,8.02
2022-10-13T11:57:02.086Z,8.23
2022-10-13T11:59:37.541Z,9.63
2022-10-13T12:02:09.909Z,8.23
2022-10-13T12:04:37.436Z,7.00
2022-10-13T12:07:06.491Z,7.30
2022-10-13T12:12:17.505Z,10.40
2022-10-13T12:14:51.062Z,7.18
2022-10-13T12:17:27.454Z,8.07
2022-10-13T12:19:56.357Z,7.60
2022-10-13T12:22:23.737Z,7.40
2022-10-13T12:25:01.786Z,6.05
2022-10-13T12:27:32.444Z,5.88
2022-10-13T12:30:01.026Z,5.75
2022-10-13T12:32:31.096Z,6.50
2022-10-13T12:35:10.768Z,5.78
2022-10-13T12:37:37.292Z,5.13
2022-10-13T12:40:04.885Z,9.68
2022-10-13T12:42:33.037Z,3.58
2022-10-13T12:45:00.630Z,5.85
2022-10-13T12:47:45.498Z,5.07
2022-10-13T12:50:30.149Z,3.67
2022-10-13T12:53:08.829Z,7.70
2022-10-13T12:55:36.827Z,6.32
2022-10-13T12:58:03.561Z,7.60
2022-10-13T13:00:30.684Z,5.90
2022-10-13T13:02:59.429Z,4.70
2022-10-13T13:05:34.103Z,7.97
2022-10-13T13:08:22.929Z,7.60
2022-10-13T13:11:00.509Z,5.93
2022-10-13T13:13:27.235Z,6.38
2022-10-13T13:15:54.197Z,6.90
2022-10-13T13:18:26.663Z,5.88
2022-10-13T13:20:54.184Z,5.55
2022-10-13T13:23:22.159Z,6.63
2022-10-13T13:26:03.249Z,5.18
2022-10-13T13:28:31.644Z,4.88
2022-10-13T13:31:02.936Z,6.55
2022-10-13T13:33:29.403Z,7.35
2022-10-13T13:35:58.491Z,4.88
2022-10-13T13:38:25.023Z,5.47
2022-10-13T13:40:51.510Z,5.63
2022-10-13T13:43:18.077Z,5.55
2022-10-13T13:45:44.713Z,6.50
2022-10-13T13:48:12.258Z,6.88
2022-10-13T13:50:39.043Z,9.80
2022-10-13T13:53:05.883Z,4.70
2022-10-13T13:55:32.518Z,4.47
2022-10-13T13:58:00.180Z,9.85
2022-10-13T14:00:26.866Z,8.65
2022-10-13T14:02:54.913Z,6.47
2022-10-13T14:05:21.402Z,6.10
2022-10-13T14:07:48.020Z,6.40
2022-10-13T14:10:14.743Z,6.88
2022-10-13T14:12:41.321Z,6.15
2022-10-13T14:15:08.489Z,7.05
2022-10-13T14:17:34.951Z,5.72
2022-10-13T14:20:01.558Z,7.80
2022-10-13T14:22:28.069Z,7.05
2022-10-13T14:24:54.674Z,5.78
2022-10-13T14:27:21.282Z,8.27
2022-10-13T14:29:47.740Z,6.57
2022-10-13T14:32:15.377Z,5.47
2022-10-13T14:34:41.983Z,6.22
2022-10-13T14:37:08.492Z,10.00
2022-10-13T14:39:34.987Z,8.32
2022-10-13T14:42:01.590Z,5.85
2022-10-13T14:44:28.075Z,6.38
2022-10-13T14:46:54.655Z,7.22
2022-10-13T14:49:21.193Z,8.43
2022-10-13T14:51:47.751Z,6.45
2022-10-13T14:54:15.890Z,6.63
2022-10-13T14:56:42.431Z,7.80
2022-10-13T14:59:09.634Z,7.07
2022-10-13T15:01:36.489Z,8.90
2022-10-13T15:04:03.494Z,6.38
2022-10-13T15:06:30.968Z,6.50
2022-10-13T15:08:57.874Z,10.13
2022-10-13T15:11:25.959Z,6.13
2022-10-13T15:13:53.532Z,5.43
2022-10-13T15:16:22.834Z,6.18
2022-10-13T15:18:49.654Z,6.82
2022-10-13T15:21:17.356Z,8.23
2022-10-13T15:23:44.510Z,5.20
2022-10-13T15:26:12.461Z,5.45
2022-10-13T15:28:41.297Z,5.40
2022-10-13T15:31:09.811Z,6.05
2022-10-13T15:33:36.320Z,6.53
2022-10-13T15:36:03.513Z,7.57
2022-10-13T15:38:32.041Z,6.35
2022-10-13T15:40:59.805Z,7.93
2022-10-13T15:43:26.854Z,7.63
2022-10-13T15:46:21.586Z,8.57
2022-10-13T15:51:16.672Z,6.40
2022-10-13T15:53:43.173Z,6.82
2022-10-13T15:56:09.640Z,6.38
2022-10-13T15:58:36.339Z,6.13
2022-10-13T16:01:10.427Z,6.38
2022-10-13T16:03:37.537Z,7.50
2022-10-13T16:06:05.811Z,5.75
2022-10-13T16:08:32.453Z,7.03
2022-10-13T16:10:58.918Z,8.70
2022-10-13T16:13:25.447Z,7.25
2022-10-13T16:15:59.092Z,7.13
2022-10-13T16:18:31.871Z,6.75
2022-10-13T16:20:58.554Z,7.68
2022-10-13T16:23:25.308Z,7.85
2022-10-13T16:25:52.071Z,8.02
2022-10-13T16:28:18.592Z,6.50
2022-10-13T16:30:45.100Z,7.95
2022-10-13T16:33:11.613Z,6.63
2022-10-13T16:35:38.269Z,7.18
2022-10-13T16:38:04.805Z,6.80
2022-10-13T16:40:31.283Z,7.43
2022-10-13T16:42:57.734Z,7.13
2022-10-13T16:45:41.169Z,7.38
2022-10-13T16:48:10.913Z,7.38
2022-10-13T16:50:38.132Z,9.05
2022-10-13T16:53:04.610Z,7.50
2022-10-13T16:55:31.083Z,6.43
2022-10-13T16:57:57.567Z,6.68
2022-10-13T17:00:24.127Z,8.32
2022-10-13T17:02:50.661Z,7.63
2022-10-13T17:05:17.279Z,8.68
2022-10-13T17:07:43.833Z,7.90
2022-10-13T17:10:10.408Z,7.55
2022-10-13T17:12:36.894Z,12.52
2022-10-13T17:15:03.563Z,8.88
2022-10-13T17:17:30.083Z,7.60
2022-10-13T17:19:56.535Z,6.93
2022-10-13T17:22:23.221Z,8.20
2022-10-13T17:24:49.773Z,8.27
2022-10-13T17:27:16.617Z,8.10
2022-10-13T17:29:43.690Z,10.27
2022-10-13T17:32:10.332Z,8.02
2022-10-13T17:34:36.914Z,7.25
2022-10-13T17:37:05.604Z,10.63
2022-10-13T17:39:32.082Z,8.65
2022-10-13T17:41:58.618Z,8.57
2022-10-13T17:44:25.110Z,7.63
2022-10-13T17:46:51.619Z,6.15
2022-10-13T17:49:18.119Z,8.02
2022-10-13T17:51:44.807Z,7.55
2022-10-13T17:54:16.015Z,7.95
2022-10-13T17:56:43.108Z,7.22
2022-10-13T17:59:09.888Z,7.20
2022-10-13T18:01:36.566Z,7.78
2022-10-13T18:04:05.696Z,7.18
2022-10-13T18:06:38.620Z,7.05
2022-10-13T18:09:07.260Z,8.25
2022-10-13T18:11:35.136Z,6.65
2022-10-13T18:14:01.597Z,7.20
2022-10-13T18:16:28.248Z,7.50
2022-10-13T18:18:55.179Z,8.68
2022-10-13T18:21:23.958Z,10.40
2022-10-13T18:23:51.876Z,8.57
2022-10-13T18:26:19.282Z,8.15
2022-10-13T18:28:47.468Z,8.85
2022-10-13T18:31:21.342Z,8.50
2022-10-13T18:33:50.437Z,8.35
2022-10-13T18:36:20.767Z,8.52
2022-10-13T18:38:47.606Z,10.30
2022-10-13T18:41:15.137Z,11.98
2022-10-13T18:43:42.006Z,11.75
2022-10-13T18:46:08.511Z,9.40
2022-10-13T18:48:35.283Z,9.75
2022-10-13T18:51:06.864Z,10.30
2022-10-13T18:53:38.152Z,8.63
2022-10-13T18:56:07.769Z,9.70
2022-10-13T18:58:34.821Z,7.78
2022-10-13T19:01:03.181Z,9.20
2022-10-13T19:03:31.624Z,9.90
2022-10-13T19:05:58.139Z,9.40
2022-10-13T19:08:25.263Z,7.05
2022-10-13T19:10:52.272Z,8.10
2022-10-13T19:13:18.795Z,8.20
2022-10-13T19:15:45.264Z,8.88
2022-10-13T19:18:11.761Z,8.70
2022-10-13T19:20:40.637Z,9.18
2022-10-13T19:23:07.121Z,8.13
2022-10-13T19:25:33.588Z,11.10
2022-10-13T19:28:09.327Z,10.88
2022-10-13T19:33:07.421Z,10.57
2022-10-13T19:35:41.875Z,15.80
2022-10-13T19:38:08.770Z,10.77
2022-10-13T19:40:38.852Z,13.32
2022-10-13T19:43:08.657Z,15.07
2022-10-13T19:45:35.124Z,16.02
2022-10-13T19:48:04.341Z,11.25
2022-10-13T19:50:33.362Z,12.57
2022-10-13T19:52:59.813Z,10.80
2022-10-13T19:55:26.277Z,11.73
2022-10-13T19:57:54.561Z,9.48
2022-10-13T20:00:21.121Z,10.18
2022-10-13T20:02:47.581Z,12.23
2022-10-13T20:05:14.161Z,9.43
2022-10-13T20:07:40.610Z,6.63
2022-10-13T20:10:07.273Z,9.05
2022-10-13T20:12:37.136Z,7.03
2022-10-13T20:15:03.753Z,6.88
2022-10-13T20:17:30.360Z,7.53
2022-10-13T20:19:56.818Z,7.82
2022-10-13T20:22:23.259Z,6.43
2022-10-13T20:24:50.448Z,10.50
2022-10-13T20:27:16.910Z,6.68
2022-10-13T20:29:43.412Z,11.05
2022-10-13T20:32:10.215Z,8.70
2022-10-13T20:34:36.660Z,8.48
2022-10-13T20:37:03.121Z,8.05
2022-10-13T20:39:29.711Z,8.88
2022-10-13T20:41:56.181Z,8.95
2022-10-13T20:44:23.137Z,8.93
2022-10-13T20:46:49.608Z,9.93
2022-10-13T20:49:16.090Z,7.68
2022-10-13T20:51:43.183Z,7.53
2022-10-13T20:54:10.865Z,7.78
2022-10-13T20:56:37.505Z,8.45
2022-10-13T20:59:05.536Z,10.38
2022-10-13T21:01:32.521Z,8.50
2022-10-13T21:03:58.948Z,8.20
2022-10-13T21:06:26.276Z,7.97
2022-10-13T21:08:52.896Z,6.60
2022-10-13T21:11:20.891Z,6.75
2022-10-13T21:13:48.051Z,9.77
2022-10-13T21:16:19.518Z,7.55
2022-10-13T21:18:48.793Z,6.72
2022-10-13T21:21:17.917Z,7.47
2022-10-13T21:23:45.473Z,7.78
2022-10-13T21:26:20.397Z,8.38
2022-10-13T21:28:48.350Z,7.18
2022-10-13T21:31:15.645Z,7.68
2022-10-13T21:33:42.884Z,7.88
2022-10-13T21:36:17.788Z,7.82
2022-10-13T21:38:45.758Z,7.18
2022-10-13T21:41:13.306Z,9.73
2022-10-13T21:43:40.122Z,8.18
2022-10-13T21:46:10.348Z,10.95
2022-10-13T21:48:42.135Z,8.88
2022-10-13T21:51:12.740Z,11.68
2022-10-13T21:53:39.225Z,7.82
2022-10-13T21:56:07.015Z,8.02
2022-10-13T21:58:34.252Z,7.35
2022-10-13T22:01:04.055Z,7.30
2022-10-13T22:03:31.045Z,11.05
2022-10-13T22:05:57.489Z,7.70
2022-10-13T22:08:37.515Z,9.55
2022-10-13T22:11:11.560Z,6.22
2022-10-13T22:13:38.688Z,7.90
2022-10-13T22:16:11.823Z,11.55
2022-10-13T22:18:42.350Z,8.68
2022-10-13T22:21:13.415Z,8.95
2022-10-13T22:23:40.024Z,7.28
2022-10-13T22:26:07.622Z,7.82
2022-10-13T22:28:37.203Z,8.77
2022-10-13T22:31:09.781Z,8.90
2022-10-13T22:33:37.964Z,8.07
2022-10-13T22:36:12.939Z,10.77
2022-10-13T22:38:39.382Z,6.75
2022-10-13T22:41:07.698Z,6.22
2022-10-13T22:43:35.840Z,6.75
2022-10-13T22:46:12.686Z,6.90
2022-10-13T22:48:40.856Z,7.35
2022-10-13T22:51:09.043Z,8.57
2022-10-13T22:53:35.549Z,7.32
2022-10-13T22:56:06.220Z,6.30
2022-10-13T22:58:32.819Z,7.30
2022-10-13T23:01:11.566Z,6.68
2022-10-13T23:03:38.650Z,7.47
2022-10-13T23:06:06.694Z,9.48
2022-10-13T23:08:34.540Z,8.18
2022-10-13T23:11:01.087Z,7.10
2022-10-13T23:13:27.593Z,7.68
2022-10-13T23:16:07.690Z,8.80
2022-10-13T23:18:37.335Z,7.60
2022-10-13T23:21:07.825Z,7.63
2022-10-13T23:23:34.681Z,9.20
2022-10-13T23:26:05.371Z,8.80
2022-10-13T23:28:32.232Z,7.85
2022-10-13T23:31:01.667Z,7.35
2022-10-13T23:33:28.161Z,6.80
2022-10-13T23:35:56.085Z,6.93
2022-10-13T23:38:23.739Z,7.40
2022-10-13T23:40:50.652Z,10.20
2022-10-13T23:43:17.287Z,7.05
2022-10-13T23:45:44.011Z,7.07
2022-10-13T23:50:40.097Z,6.28
2022-10-13T23:53:06.540Z,6.38
2022-10-13T23:55:37.406Z,7.35
2022-10-13T23:58:03.874Z,6.80
